Time;durP1;ratioP1;P1;durP2;ratioP2;P2;SDS_P1;SDS_P2;PMS_P1;PMS_P2;Temp;Humidity;BMP_temperature;BMP_pressure;BME280_temperature;BME280_humidity;BME280_pressure;Samples;Min_cycle;Max_cycle;Signal;HPM_P1;HPM_P2
2023/11/14 06:00:49;;;;;;;2.53;0.63;;;8.50;99.90;;;;;;2603608;54;20912;31
2023/11/14 06:17:43;;;;;;;4.97;1.10;;;8.40;99.90;;;;;;2712001;38;20453;31
2023/11/14 06:26:28;;;;;;;6.00;1.05;;;8.40;99.90;;;;;;2603999;54;20921;31
2023/11/14 06:29:02;;;;;;;6.20;0.82;;;8.40;99.90;;;;;;2623037;46;20880;31
2023/11/14 06:31:39;;;;;;;4.82;0.70;;;8.40;99.90;;;;;;2702576;38;20536;31
2023/11/14 06:34:21;;;;;;;4.07;1.17;;;8.40;99.90;;;;;;2604151;54;20884;31
2023/11/14 06:36:59;;;;;;;7.30;0.60;;;8.40;99.90;;;;;;2702678;38;20470;31
2023/11/14 06:39:36;;;;;;;4.80;0.73;;;8.50;99.90;;;;;;2621942;46;20046;31
2023/11/14 06:42:12;;;;;;;4.80;0.95;;;8.50;99.90;;;;;;2702601;39;22382;31
2023/11/14 06:44:49;;;;;;;5.87;0.77;;;8.60;99.90;;;;;;2603960;54;20022;31
2023/11/14 06:50:19;;;;;;;6.03;0.77;;;8.70;99.90;;;;;;2603301;54;20072;31
2023/11/14 06:53:10;;;;;;;5.82;0.75;;;8.70;99.90;;;;;;2603941;54;21035;31
2023/11/14 07:04:54;;;;;;;6.90;1.17;;;9.00;99.90;;;;;;2602848;54;20942;31
2023/11/14 07:10:12;;;;;;;5.70;0.90;;;9.20;99.90;;;;;;2602529;54;20030;31
2023/11/14 07:12:52;;;;;;;6.95;0.80;;;9.20;99.90;;;;;;2602832;54;20711;31
2023/11/14 07:18:34;;;;;;;7.00;0.70;;;9.40;99.90;;;;;;2610810;54;21037;31
2023/11/14 07:21:13;;;;;;;8.17;1.17;;;9.80;99.90;;;;;;2603089;54;20793;31
2023/11/14 07:23:49;;;;;;;4.18;0.80;;;10.40;99.90;;;;;;2602995;54;20038;31
2023/11/14 07:26:29;;;;;;;3.23;0.80;;;10.80;99.90;;;;;;2602803;54;20577;31
2023/11/14 07:32:08;;;;;;;4.35;0.70;;;12.00;99.90;;;;;;2603014;54;20562;31
2023/11/14 07:34:46;;;;;;;2.35;0.70;;;12.70;92.90;;;;;;2621466;46;20022;31
2023/11/14 07:37:22;;;;;;;8.07;1.08;;;13.00;89.00;;;;;;2603082;54;20094;31
2023/11/14 07:40:00;;;;;;;7.57;1.75;;;13.00;77.30;;;;;;2603008;54;20076;31
2023/11/14 07:42:37;;;;;;;2.90;0.65;;;12.80;89.70;;;;;;2603236;54;20034;31
2023/11/14 07:45:18;;;;;;;5.63;0.90;;;13.10;81.70;;;;;;2602132;54;20082;31
2023/11/14 07:57:16;;;;;;;6.27;1.20;;;14.60;51.40;;;;;;2602399;54;20779;31
2023/11/14 08:11:54;;;;;;;4.68;0.50;;;15.00;38.50;;;;;;2603261;54;20137;31
2023/11/14 08:20:42;;;;;;;5.80;1.05;;;14.30;37.50;;;;;;2610976;54;21028;31
2023/11/14 08:29:23;;;;;;;4.88;0.70;;;14.20;42.70;;;;;;2602996;54;20871;31
2023/11/14 08:31:59;;;;;;;4.75;1.00;;;14.30;38.50;;;;;;2700752;39;21344;31
2023/11/14 08:34:36;;;;;;;3.08;0.60;;;14.30;38.00;;;;;;2603092;54;20951;31
2023/11/14 08:37:12;;;;;;;4.22;0.60;;;14.50;44.80;;;;;;2719939;39;20616;31
2023/11/14 08:39:53;;;;;;;3.80;0.80;;;14.70;47.20;;;;;;2602933;54;20037;31
2023/11/14 08:42:34;;;;;;;3.80;1.10;;;14.70;48.20;;;;;;2603168;54;20754;31
2023/11/14 08:45:07;;;;;;;1.95;0.68;;;14.60;43.50;;;;;;2602922;54;20250;31
2023/11/14 08:47:46;;;;;;;3.90;0.75;;;14.60;41.10;;;;;;2701426;39;20489;31
2023/11/14 08:50:23;;;;;;;5.40;0.95;;;14.40;41.70;;;;;;2603052;54;20866;31
2023/11/14 08:52:59;;;;;;;1.70;0.68;;;14.30;41.80;;;;;;2615165;46;20100;31
2023/11/14 08:55:39;;;;;;;5.38;1.00;;;14.20;40.30;;;;;;2620398;46;20627;31
2023/11/14 08:58:16;;;;;;;7.90;0.70;;;14.00;43.00;;;;;;2700693;39;21343;31
2023/11/14 09:00:53;;;;;;;5.18;1.10;;;13.80;45.10;;;;;;2602988;54;20038;31
2023/11/14 09:03:31;;;;;;;4.38;1.38;;;13.70;48.80;;;;;;2602952;54;20033;31
2023/11/14 09:09:00;;;;;;;7.10;1.20;;;13.60;51.30;;;;;;2602210;54;20860;31
2023/11/14 09:11:38;;;;;;;2.92;0.60;;;13.50;50.30;;;;;;2621288;46;20581;31
2023/11/14 09:14:23;;;;;;;10.93;2.00;;;13.50;49.50;;;;;;2603063;54;20839;31
2023/11/14 09:16:59;;;;;;;5.20;0.90;;;13.40;56.00;;;;;;2602413;54;20033;31
2023/11/14 09:19:38;;;;;;;8.70;1.00;;;13.40;50.90;;;;;;2620986;46;22364;31
2023/11/14 09:22:14;;;;;;;6.00;0.90;;;13.40;50.70;;;;;;2701207;39;20585;31
2023/11/14 09:24:52;;;;;;;7.80;1.40;;;13.40;53.80;;;;;;2601940;54;20880;31
2023/11/14 09:27:28;;;;;;;4.43;0.80;;;13.50;54.70;;;;;;2602572;54;20616;31
2023/11/14 09:30:06;;;;;;;4.60;0.98;;;13.50;58.60;;;;;;2602650;54;20322;31
2023/11/14 09:32:40;;;;;;;7.55;0.90;;;13.40;58.60;;;;;;2602736;54;20049;31
2023/11/14 09:35:23;;;;;;;5.82;0.85;;;13.40;52.00;;;;;;2719601;39;20492;31
2023/11/14 09:37:58;;;;;;;6.10;1.00;;;13.30;55.40;;;;;;2602616;54;20026;31
2023/11/14 09:40:37;;;;;;;5.57;0.90;;;13.20;54.00;;;;;;2602040;54;22010;31
2023/11/14 09:43:16;;;;;;;9.30;1.05;;;13.20;54.30;;;;;;2602866;54;20053;31
2023/11/14 09:45:52;;;;;;;4.90;1.30;;;13.10;55.90;;;;;;2621422;46;21350;31
2023/11/14 09:48:27;;;;;;;8.68;1.38;;;13.00;62.20;;;;;;2614237;47;22209;31
2023/11/14 09:51:09;;;;;;;6.53;1.10;;;13.00;57.40;;;;;;2602669;54;20030;31
2023/11/14 09:53:44;;;;;;;7.13;0.98;;;13.00;58.00;;;;;;2602661;54;20042;31
2023/11/14 09:56:20;;;;;;;3.35;0.70;;;13.00;59.10;;;;;;2602675;54;20058;31
2023/11/14 09:58:56;;;;;;;6.78;0.82;;;13.00;58.90;;;;;;2620964;47;22488;31
2023/11/14 10:01:32;;;;;;;3.40;0.90;;;13.00;60.40;;;;;;2602643;54;20910;31
2023/11/14 10:04:18;;;;;;;3.88;0.88;;;12.90;59.40;;;;;;2621052;47;20097;31
2023/11/14 10:06:59;;;;;;;6.50;0.87;;;12.90;62.00;;;;;;2602482;54;20859;31
2023/11/14 10:09:34;;;;;;;6.53;0.90;;;12.90;59.20;;;;;;2602592;54;20030;31
2023/11/14 10:15:22;;;;;;;5.10;0.93;;;12.90;61.30;;;;;;2601514;54;20893;31
2023/11/14 10:18:17;;;;;;;6.32;0.93;;;12.90;62.00;;;;;;2601910;54;20031;31
2023/11/14 10:20:54;;;;;;;6.03;1.10;;;12.90;63.50;;;;;;2602671;54;20034;31
2023/11/14 10:23:39;;;;;;;4.60;1.20;;;12.80;65.10;;;;;;2618837;47;20882;31
2023/11/14 10:26:17;;;;;;;4.60;0.73;;;12.80;66.30;;;;;;2602402;54;20094;31
2023/11/14 10:29:00;;;;;;;4.55;0.90;;;12.80;65.30;;;;;;2621003;47;21069;31
2023/11/14 10:31:38;;;;;;;5.60;0.98;;;12.80;67.90;;;;;;2602760;54;20957;31
2023/11/14 10:34:27;;;;;;;5.22;1.02;;;12.80;70.60;;;;;;2602593;54;21910;31
2023/11/14 10:37:04;;;;;;;8.00;1.15;;;12.70;73.80;;;;;;2603401;54;20026;31
2023/11/14 10:39:54;;;;;;;3.83;1.25;;;12.70;76.30;;;;;;2603006;54;20050;31
2023/11/14 10:42:28;;;;;;;4.35;1.30;;;12.70;77.60;;;;;;2603508;54;20915;31
2023/11/14 10:48:08;;;;;;;6.60;1.20;;;12.60;80.10;;;;;;2603084;54;20034;31
2023/11/14 10:53:48;;;;;;;4.05;0.90;;;12.50;76.60;;;;;;2603036;54;20038;31
2023/11/14 10:56:30;;;;;;;3.55;1.00;;;12.50;78.90;;;;;;2602467;54;20034;31
2023/11/14 10:59:13;;;;;;;15.13;1.80;;;12.50;80.50;;;;;;2701546;39;20572;31
2023/11/14 11:01:49;;;;;;;5.28;1.05;;;12.50;80.80;;;;;;2602351;54;20026;31
2023/11/14 11:04:26;;;;;;;4.05;1.27;;;12.40;77.70;;;;;;2603431;54;20030;31
2023/11/14 11:07:05;;;;;;;5.50;1.30;;;12.40;82.10;;;;;;2603124;54;20029;31
2023/11/14 11:09:41;;;;;;;7.40;1.57;;;12.40;82.70;;;;;;2603140;54;20026;31
2023/11/14 11:12:21;;;;;;;5.00;1.03;;;12.40;82.40;;;;;;2602876;54;20595;31
2023/11/14 11:15:08;;;;;;;3.42;1.17;;;12.50;82.50;;;;;;2603350;54;21158;31
2023/11/14 11:17:47;;;;;;;4.75;1.27;;;12.50;83.40;;;;;;2622016;46;20861;31
2023/11/14 11:20:26;;;;;;;5.10;1.00;;;12.50;80.20;;;;;;2621326;46;21160;31
2023/11/14 11:37:55;;;;;;;5.95;1.20;;;12.70;73.30;;;;;;2602903;54;20022;31
2023/11/14 11:40:39;;;;;;;3.63;1.00;;;12.70;75.90;;;;;;2602995;54;20029;31
2023/11/14 11:43:26;;;;;;;2.65;0.80;;;12.70;75.70;;;;;;2603083;54;20801;31
2023/11/14 11:48:58;;;;;;;4.00;0.90;;;12.60;76.90;;;;;;2601292;54;19989;31
2023/11/14 11:51:37;;;;;;;4.32;1.00;;;12.50;79.20;;;;;;2621362;46;20903;31
2023/11/14 12:34:41;;;;;;;3.73;0.97;;;12.20;92.70;;;;;;2610944;54;20022;31
2023/11/14 14:13:14;;;;;;;6.25;1.35;;;11.90;85.10;;;;;;2602269;54;20038;31
2023/11/14 14:15:53;;;;;;;6.35;1.25;;;11.80;87.40;;;;;;2621408;46;20053;31
2023/11/14 14:18:30;;;;;;;6.45;1.52;;;11.80;86.10;;;;;;2603266;54;20057;31
2023/11/14 14:21:07;;;;;;;4.80;1.20;;;11.70;87.50;;;;;;2603180;54;20881;31
2023/11/14 14:32:36;;;;;;;8.10;2.00;;;11.60;90.20;;;;;;2621653;46;20045;31
2023/11/14 14:35:12;;;;;;;7.03;1.50;;;11.60;90.70;;;;;;2621271;46;20030;31
2023/11/14 14:37:47;;;;;;;4.93;1.50;;;11.60;90.40;;;;;;2621577;46;20122;31
2023/11/14 14:40:22;;;;;;;5.05;1.20;;;11.50;90.30;;;;;;2603045;54;20259;31
2023/11/14 14:43:01;;;;;;;6.68;1.48;;;11.50;90.10;;;;;;2603171;54;20067;31
2023/11/14 14:45:38;;;;;;;3.70;1.30;;;11.50;90.40;;;;;;2621881;46;20031;31
2023/11/14 14:54:03;;;;;;;3.85;1.02;;;11.40;90.00;;;;;;2610908;54;20027;31
2023/11/14 15:03:01;;;;;;;5.70;1.42;;;11.30;90.40;;;;;;2602268;54;20022;31
2023/11/14 15:05:41;;;;;;;12.35;3.10;;;11.30;91.00;;;;;;2602929;54;20026;31
2023/11/14 15:08:22;;;;;;;12.48;3.90;;;11.30;89.60;;;;;;2621680;46;20141;31
2023/11/14 15:10:58;;;;;;;9.82;2.80;;;11.20;90.30;;;;;;2603186;54;20856;31
2023/11/14 15:16:27;;;;;;;5.68;2.45;;;11.20;90.20;;;;;;2603100;54;20884;31
2023/11/14 15:19:06;;;;;;;8.85;1.80;;;11.10;89.70;;;;;;2621665;46;20892;31
2023/11/14 15:21:41;;;;;;;7.10;1.95;;;11.10;90.00;;;;;;2602764;54;20966;31
2023/11/14 15:24:19;;;;;;;8.00;1.80;;;11.10;90.70;;;;;;2603008;54;20053;31
2023/11/14 15:26:54;;;;;;;8.73;1.52;;;11.20;90.30;;;;;;2603177;54;20884;31
2023/11/14 15:29:31;;;;;;;5.38;1.30;;;11.20;90.40;;;;;;2701552;39;21457;31
2023/11/14 15:32:09;;;;;;;11.65;2.00;;;11.20;90.10;;;;;;2609574;46;20058;31
2023/11/14 15:34:49;;;;;;;11.00;1.80;;;11.20;87.80;;;;;;2603251;54;21183;31
2023/11/14 15:37:24;;;;;;;7.05;1.80;;;11.20;89.10;;;;;;2603264;54;20893;31
2023/11/14 15:39:59;;;;;;;10.88;2.17;;;11.20;87.80;;;;;;2602769;54;20049;31
2023/11/14 15:42:34;;;;;;;7.63;2.73;;;11.20;86.10;;;;;;2621516;46;20144;31
2023/11/14 15:45:09;;;;;;;6.55;1.67;;;11.20;85.10;;;;;;2621399;46;20030;31
2023/11/14 15:47:49;;;;;;;5.78;1.77;;;11.20;85.40;;;;;;2602888;54;20106;31
2023/11/14 15:50:28;;;;;;;6.60;1.75;;;11.30;85.20;;;;;;2602897;54;20033;31
2023/11/14 15:53:04;;;;;;;4.97;1.63;;;11.30;83.50;;;;;;2602978;54;20031;31
2023/11/14 15:55:40;;;;;;;7.35;2.00;;;11.30;83.90;;;;;;2603074;54;20031;31
2023/11/14 15:58:17;;;;;;;10.25;2.50;;;11.30;81.90;;;;;;2602970;54;20022;31
2023/11/14 16:00:57;;;;;;;6.35;1.80;;;11.40;80.30;;;;;;2621321;46;20030;31
2023/11/14 16:03:34;;;;;;;6.20;1.52;;;11.30;82.00;;;;;;2621348;46;20026;31
2023/11/14 16:06:13;;;;;;;5.30;1.75;;;11.40;81.00;;;;;;2602848;54;20031;31
2023/11/14 16:08:47;;;;;;;7.90;1.45;;;11.40;81.20;;;;;;2603142;54;20141;31
2023/11/14 16:11:25;;;;;;;;;;;11.40;79.60;;;;;;2603142;54;20034;31
2023/11/14 16:14:00;;;;;;;7.57;1.70;;;11.40;80.30;;;;;;2621753;46;20032;31
2023/11/14 16:16:35;;;;;;;10.57;1.70;;;11.40;78.40;;;;;;2602673;54;20838;31
2023/11/14 16:19:08;;;;;;;7.00;2.07;;;11.40;78.50;;;;;;2602752;54;21972;31
2023/11/14 16:21:46;;;;;;;7.88;1.75;;;11.40;78.80;;;;;;2701202;39;21451;31
2023/11/14 16:24:22;;;;;;;8.95;1.73;;;11.40;77.70;;;;;;2602744;54;20050;31
2023/11/14 16:26:56;;;;;;;5.90;1.75;;;11.40;77.70;;;;;;2602794;54;20034;31
2023/11/14 16:29:31;;;;;;;7.93;2.28;;;11.40;78.40;;;;;;2620799;46;20044;31
2023/11/14 16:32:09;;;;;;;10.35;2.28;;;11.30;77.70;;;;;;2621368;46;20830;31
2023/11/14 16:34:45;;;;;;;6.68;2.28;;;11.30;77.30;;;;;;2602951;54;20866;31
2023/11/14 16:37:20;;;;;;;9.57;2.40;;;11.40;77.90;;;;;;2602873;54;21258;31
2023/11/14 16:39:56;;;;;;;10.60;1.95;;;11.30;77.90;;;;;;2602988;54;20840;31
2023/11/14 16:42:31;;;;;;;8.57;2.10;;;11.30;78.50;;;;;;2602728;54;20026;31
2023/11/14 16:45:08;;;;;;;12.20;2.05;;;11.30;78.90;;;;;;2621607;46;20045;31
2023/11/14 16:47:44;;;;;;;6.63;1.65;;;11.20;79.70;;;;;;2602726;54;20157;31
2023/11/14 16:50:20;;;;;;;10.20;2.50;;;11.20;80.50;;;;;;2621097;46;20054;31
2023/11/14 16:52:58;;;;;;;;;;;11.20;81.90;;;;;;2603110;54;20581;31
2023/11/14 16:55:34;;;;;;;5.60;2.08;;;11.20;82.60;;;;;;2719754;39;20452;31
2023/11/14 16:58:10;;;;;;;6.63;2.80;;;11.20;82.60;;;;;;2602844;54;20954;31
2023/11/14 17:00:45;;;;;;;8.43;2.17;;;11.20;83.40;;;;;;2602884;54;20751;31
2023/11/14 17:03:20;;;;;;;5.90;2.00;;;11.20;85.80;;;;;;2602584;54;21001;31
2023/11/14 17:05:54;;;;;;;6.20;1.98;;;11.20;88.00;;;;;;2701199;39;21106;31
2023/11/14 17:08:31;;;;;;;9.25;2.30;;;11.20;89.80;;;;;;2602715;54;22373;31
2023/11/14 17:11:08;;;;;;;10.10;2.43;;;11.10;91.30;;;;;;2602680;54;20034;31
2023/11/14 17:13:44;;;;;;;11.27;3.08;;;11.20;91.90;;;;;;2602524;54;21572;31
2023/11/14 17:16:20;;;;;;;12.40;2.90;;;11.10;92.80;;;;;;2621133;46;20904;31
2023/11/14 17:18:56;;;;;;;8.68;2.83;;;11.10;94.40;;;;;;2602389;54;20042;31
2023/11/14 17:21:32;;;;;;;5.07;2.25;;;11.10;96.30;;;;;;2620851;46;20049;31
2023/11/14 17:24:15;;;;;;;6.80;2.00;;;11.10;96.30;;;;;;2602750;54;20770;31
2023/11/14 17:26:51;;;;;;;9.53;2.53;;;11.10;96.10;;;;;;2620825;46;20781;31
2023/11/14 17:29:26;;;;;;;9.90;2.20;;;11.10;96.50;;;;;;2602487;54;20834;31
2023/11/14 17:32:02;;;;;;;7.45;2.10;;;11.10;96.40;;;;;;2772448;31;21235;31
2023/11/14 17:34:38;;;;;;;6.47;2.17;;;11.10;97.10;;;;;;2602556;54;21573;31
2023/11/14 17:37:14;;;;;;;8.52;2.33;;;11.10;96.60;;;;;;2621216;46;20027;31
2023/11/14 17:39:59;;;;;;;6.60;2.40;;;11.10;97.10;;;;;;2602598;54;20886;31
2023/11/14 17:42:35;;;;;;;5.13;2.20;;;11.10;97.10;;;;;;2620905;47;20026;31
2023/11/14 17:45:11;;;;;;;7.22;2.28;;;11.10;97.00;;;;;;2602639;54;20052;31
2023/11/14 17:47:47;;;;;;;6.32;1.90;;;11.10;97.20;;;;;;2602102;54;20032;31
2023/11/14 17:50:24;;;;;;;11.10;3.23;;;11.00;96.90;;;;;;2701044;39;21336;31
2023/11/14 17:53:02;;;;;;;4.45;2.08;;;11.00;97.10;;;;;;2602588;54;20065;31
2023/11/14 17:55:46;;;;;;;9.48;2.28;;;11.00;97.30;;;;;;2602608;54;20889;31
2023/11/14 17:58:22;;;;;;;8.35;1.85;;;11.00;97.70;;;;;;2602762;54;20912;31
2023/11/14 18:01:17;;;;;;;5.57;1.70;;;10.90;97.90;;;;;;2602637;54;20033;31
2023/11/14 18:03:56;;;;;;;8.25;2.30;;;11.00;97.80;;;;;;2719434;39;21322;31
2023/11/14 18:09:29;;;;;;;9.90;2.40;;;10.90;99.90;;;;;;2602353;54;20026;31
2023/11/14 18:12:14;;;;;;;9.00;2.85;;;11.00;99.90;;;;;;2700656;39;21313;31
2023/11/14 18:15:00;;;;;;;6.63;2.27;;;10.90;99.90;;;;;;2621406;47;21430;31
2023/11/14 18:20:31;;;;;;;8.13;2.40;;;11.00;99.90;;;;;;2610504;54;20015;31
2023/11/14 18:23:08;;;;;;;5.93;1.83;;;11.00;99.90;;;;;;2602351;54;20030;31
2023/11/14 18:25:47;;;;;;;6.45;2.00;;;11.00;99.90;;;;;;2602525;54;20923;31
2023/11/14 18:28:29;;;;;;;6.55;1.70;;;11.00;99.90;;;;;;2620245;47;20018;31
2023/11/14 18:31:04;;;;;;;5.30;2.42;;;11.00;99.90;;;;;;2602398;54;21407;31
2023/11/14 18:33:42;;;;;;;7.80;1.75;;;11.00;99.90;;;;;;2601997;54;20038;31
2023/11/14 18:36:16;;;;;;;4.40;1.77;;;11.10;99.90;;;;;;2602184;54;20137;31
2023/11/14 18:38:51;;;;;;;3.93;1.70;;;11.10;99.90;;;;;;2719413;39;20421;31
2023/11/14 18:41:31;;;;;;;6.93;1.70;;;11.10;99.90;;;;;;2602163;54;21219;31
2023/11/14 18:44:10;;;;;;;4.90;1.60;;;11.00;99.90;;;;;;2602286;54;21138;31
2023/11/14 18:46:51;;;;;;;4.63;1.50;;;11.10;99.90;;;;;;2602135;54;20846;31
2023/11/14 18:49:25;;;;;;;5.37;2.37;;;11.10;99.90;;;;;;2602331;54;20030;31
2023/11/14 18:52:01;;;;;;;5.95;1.92;;;11.20;99.90;;;;;;2602240;54;20266;31
2023/11/14 18:54:38;;;;;;;8.65;2.40;;;11.10;99.90;;;;;;2603110;54;20800;31
2023/11/14 18:57:13;;;;;;;5.40;2.13;;;11.10;99.90;;;;;;2603184;54;20022;31
2023/11/14 18:59:48;;;;;;;8.60;2.17;;;11.10;99.90;;;;;;2621468;46;20033;31
2023/11/14 19:02:27;;;;;;;5.53;2.15;;;11.10;99.90;;;;;;2701204;39;20444;31
2023/11/14 19:05:03;;;;;;;9.48;2.40;;;11.20;99.90;;;;;;2603098;54;20878;31
2023/11/14 19:07:40;;;;;;;5.90;2.60;;;11.20;99.90;;;;;;2602932;54;20783;31
2023/11/14 19:10:16;;;;;;;6.45;2.08;;;11.10;99.90;;;;;;2603216;54;20033;31
2023/11/14 19:12:51;;;;;;;3.50;2.00;;;11.10;99.90;;;;;;2602966;54;20091;31
2023/11/14 19:15:31;;;;;;;6.35;2.50;;;11.10;99.90;;;;;;2621430;46;20033;31
2023/11/14 19:18:14;;;;;;;5.07;2.40;;;11.10;99.90;;;;;;2603186;54;20913;31
2023/11/14 19:23:48;;;;;;;6.75;2.35;;;11.10;99.90;;;;;;2602158;54;20030;31
2023/11/14 19:26:27;;;;;;;7.55;2.08;;;11.10;99.90;;;;;;2602275;54;20030;31
2023/11/14 19:38:12;;;;;;;3.20;1.80;;;11.00;99.90;;;;;;2601737;54;20054;31
2023/11/14 19:40:58;;;;;;;6.63;1.90;;;10.90;99.90;;;;;;2601837;54;21180;31
2023/11/14 19:43:36;;;;;;;5.38;1.63;;;10.90;99.90;;;;;;2621119;46;21901;31
2023/11/14 19:46:13;;;;;;;7.95;2.20;;;10.90;99.90;;;;;;2621304;46;20026;31
2023/11/14 19:48:51;;;;;;;7.15;2.05;;;10.80;99.90;;;;;;2602991;54;20031;31
2023/11/14 19:51:29;;;;;;;4.70;1.98;;;10.80;99.90;;;;;;2603080;54;20926;31
2023/11/14 19:54:06;;;;;;;6.38;2.10;;;10.70;99.90;;;;;;2613414;46;20877;31
2023/11/14 19:56:42;;;;;;;4.38;1.92;;;10.70;99.90;;;;;;2617359;46;20030;31
2023/11/14 19:59:21;;;;;;;5.45;1.95;;;10.70;99.90;;;;;;2602809;54;20892;31
2023/11/14 20:01:57;;;;;;;7.55;2.75;;;10.70;99.90;;;;;;2602680;54;20617;31
2023/11/14 20:04:32;;;;;;;6.70;2.10;;;10.70;99.90;;;;;;2601873;54;20046;31
2023/11/14 20:10:08;;;;;;;4.85;2.20;;;10.70;99.90;;;;;;2602175;54;20926;31
2023/11/14 20:13:00;;;;;;;6.73;1.87;;;10.70;99.90;;;;;;2602097;54;20627;31
2023/11/14 20:15:42;;;;;;;5.17;2.30;;;10.70;99.90;;;;;;2602849;54;20077;31
2023/11/14 20:18:21;;;;;;;8.30;1.90;;;10.80;99.90;;;;;;2602766;54;20242;31
2023/11/14 20:20:58;;;;;;;5.53;1.75;;;10.80;99.90;;;;;;2602828;54;20023;31
2023/11/14 20:23:37;;;;;;;5.93;2.03;;;10.80;99.90;;;;;;2602815;54;20030;31
2023/11/14 20:26:13;;;;;;;7.30;1.95;;;10.80;99.90;;;;;;2602541;54;20114;31
2023/11/14 20:31:53;;;;;;;4.40;2.00;;;10.80;99.90;;;;;;2602785;54;20500;31
2023/11/14 20:43:36;;;;;;;4.45;1.80;;;10.90;99.90;;;;;;2602001;54;20023;31
2023/11/14 20:46:17;;;;;;;5.70;1.70;;;10.90;99.90;;;;;;2771900;31;21478;31
2023/11/14 21:51:29;;;;;;;4.47;1.27;;;10.80;99.90;;;;;;2601455;54;20281;31
2023/11/14 22:54:09;;;;;;;9.35;2.30;;;10.60;99.90;;;;;;2610117;54;20031;31
2023/11/14 22:56:52;;;;;;;7.70;2.58;;;10.80;99.90;;;;;;2603005;54;20894;31
2023/11/14 22:59:31;;;;;;;4.80;1.90;;;10.70;99.90;;;;;;2603009;54;20034;31
2023/11/14 23:02:06;;;;;;;3.72;1.80;;;10.70;99.90;;;;;;2603308;54;20890;31
2023/11/14 23:04:41;;;;;;;5.03;1.75;;;10.60;99.90;;;;;;2617082;46;20034;31
2023/11/14 23:07:27;;;;;;;4.27;1.60;;;10.60;99.90;;;;;;2621338;46;21842;31
2023/11/14 23:10:10;;;;;;;7.03;1.80;;;10.50;99.90;;;;;;2603029;54;20244;31
2023/11/14 23:12:46;;;;;;;6.10;1.90;;;10.50;99.90;;;;;;2602115;54;21078;31
2023/11/14 23:15:27;;;;;;;6.85;2.20;;;10.50;99.90;;;;;;2603060;54;20743;31
2023/11/14 23:18:02;;;;;;;4.00;2.30;;;10.40;99.90;;;;;;2602827;54;20930;31
2023/11/14 23:20:39;;;;;;;3.90;2.08;;;10.30;99.90;;;;;;2620978;46;20026;31
2023/11/14 23:23:16;;;;;;;6.70;2.20;;;10.30;99.90;;;;;;2602922;54;20023;31
2023/11/14 23:25:55;;;;;;;5.65;2.05;;;10.30;99.90;;;;;;2602165;54;20909;31
2023/11/14 23:28:31;;;;;;;5.43;1.60;;;10.30;99.90;;;;;;2602889;54;20037;31
2023/11/14 23:31:07;;;;;;;5.43;1.85;;;10.30;99.90;;;;;;2701465;39;20850;31
2023/11/14 23:33:42;;;;;;;3.63;1.70;;;10.20;99.90;;;;;;2621196;46;21838;31
2023/11/14 23:36:20;;;;;;;6.60;1.67;;;10.20;99.90;;;;;;2602319;54;20885;31
2023/11/14 23:38:55;;;;;;;6.10;1.48;;;10.20;99.90;;;;;;2621249;46;20034;31
2023/11/14 23:41:33;;;;;;;5.05;2.20;;;10.20;99.90;;;;;;2602113;54;20102;31
2023/11/14 23:44:10;;;;;;;5.45;1.67;;;10.10;99.90;;;;;;2602164;54;20034;31
2023/11/14 23:46:57;;;;;;;8.75;2.15;;;10.10;99.90;;;;;;2602848;54;20097;31
2023/11/14 23:49:52;;;;;;;5.38;1.90;;;10.10;99.90;;;;;;2602942;54;20027;31
2023/11/14 23:52:28;;;;;;;4.60;2.00;;;10.10;99.90;;;;;;2621214;46;20034;31
2023/11/14 23:55:04;;;;;;;5.10;2.07;;;10.10;99.90;;;;;;2602887;54;20766;31
2023/11/14 23:57:42;;;;;;;5.73;1.70;;;10.10;99.90;;;;;;2621233;46;20032;31
